Orenco, Oregon
Current Conditions -  °F | °C
As of 10:19 PM on Sunday 25 Jan 2015 (Local Time) from KHIO Reporting Station
Moderate Fog Moderate Fog  
Wind Chill: 44°   Ceiling: 200
Heat Index: 44°   Visibility: 0.25mi
Dew Point: 44°   Wind: 0mph
Humidity: 100%   Direction: NA
Pressure: 29.99"   Gusts: NA
Location:  45.6165°N, 122.954°W
Report Text: KHIO 260619Z AUTO 00000KT 1/4SM R13/1200V1400FT FG VV002 07/07 A2999 RMK AO2 T00670067 $
Loading
Personal Weather Stations






























Interactive Weather Map New forecast layout! Learn more

10-Day Weather Forecast

Advertisements
Track Severe Weather on mobile